Nashville, Tennessee
Traffic Map
Current Weather Conditions
Nashville, Tennessee
Overcast
Overcast
73°
Feels Like: 73°
Wind Chill: 73° Ceiling: 1300
Heat Index: 73° Visibility: 10mi
Dew Point: 65° Wind: 14mph
Humidity: 76% Direction: 340° (NNW)
Pressure: 30.07in Gusts: 22mph
Raw Report DataKBNA 221902Z 34012G19KT 10SM BKN013 OVC029 23/18 A3007 RMK AO2 CB DSNT SW T02280183
Traffic Incident Summary
Active as of:
Severity:
Category:
InformationThere was an issue retrieving the traffic information for this location. Please try a different location or try again shortly.
Advertisements